createdAt,value
2022-12-22T00:00:00.906Z,0.00
2022-12-22T00:10:01.011Z,0.00
2022-12-22T00:20:01.954Z,0.00
2022-12-22T00:30:02.426Z,0.00
2022-12-22T00:40:01.482Z,0.00
2022-12-22T00:50:01.137Z,0.00
2022-12-22T01:00:01.052Z,0.00
2022-12-22T01:10:01.268Z,0.00
2022-12-22T01:20:01.038Z,0.00
2022-12-22T01:30:01.618Z,0.00
2022-12-22T01:40:01.063Z,0.00
2022-12-22T01:50:01.128Z,0.00
2022-12-22T02:00:01.043Z,1.25
2022-12-22T02:10:01.805Z,0.00
2022-12-22T02:20:00.927Z,0.00
2022-12-22T02:30:04.650Z,0.00
2022-12-22T02:40:00.961Z,0.00
2022-12-22T02:50:01.891Z,0.00
2022-12-22T03:00:01.299Z,0.00
2022-12-22T03:10:01.268Z,0.00
2022-12-22T03:20:01.106Z,0.00
2022-12-22T03:30:01.409Z,0.00
2022-12-22T03:40:01.042Z,0.00
2022-12-22T03:50:01.100Z,0.00
2022-12-22T04:00:01.067Z,0.00
2022-12-22T04:10:01.185Z,0.00
2022-12-22T04:20:01.358Z,0.00
2022-12-22T04:30:01.544Z,0.00
2022-12-22T04:40:01.220Z,0.00
2022-12-22T04:50:01.515Z,0.00
2022-12-22T05:00:01.851Z,0.00
2022-12-22T05:10:01.373Z,0.00
2022-12-22T05:20:03.089Z,0.00
2022-12-22T05:30:01.111Z,0.00
2022-12-22T05:40:00.997Z,0.00
2022-12-22T05:50:01.943Z,0.00
2022-12-22T06:00:01.298Z,0.00
2022-12-22T06:10:03.922Z,0.00
2022-12-22T06:20:00.928Z,0.00
2022-12-22T06:30:00.233Z,0.00
2022-12-22T06:40:01.054Z,0.45
2022-12-22T06:50:00.994Z,2.94
2022-12-22T07:00:01.273Z,15.00
2022-12-22T07:10:01.113Z,15.00
2022-12-22T07:20:01.000Z,64.17
2022-12-22T07:30:00.173Z,43.33
2022-12-22T07:40:00.835Z,122.50
2022-12-22T07:50:01.005Z,143.33
2022-12-22T08:00:01.271Z,198.33
2022-12-22T08:10:01.552Z,375.42
2022-12-22T08:20:01.078Z,408.75
2022-12-22T08:30:01.981Z,480.00
2022-12-22T08:40:01.393Z,221.67
2022-12-22T08:50:01.109Z,231.67
2022-12-22T09:00:02.610Z,607.92
2022-12-22T09:10:01.977Z,343.33
2022-12-22T09:20:00.825Z,693.33
2022-12-22T09:30:01.679Z,651.67
2022-12-22T09:40:01.304Z,607.08
2022-12-22T09:50:01.175Z,760.83
2022-12-22T10:00:02.549Z,870.83
2022-12-22T10:10:00.186Z,853.75
2022-12-22T10:20:00.986Z,448.33
2022-12-22T10:30:01.338Z,543.33
2022-12-22T10:40:01.945Z,1020.42
2022-12-22T11:00:01.371Z,1031.67
2022-12-22T11:10:01.101Z,660.00
2022-12-22T11:20:01.478Z,1116.67
2022-12-22T11:30:01.000Z,2209.17
2022-12-22T11:40:01.265Z,811.67
2022-12-22T11:50:46.186Z,1220.83
2022-12-22T12:00:01.335Z,1016.25
2022-12-22T12:10:01.265Z,626.67
2022-12-22T12:20:01.169Z,1013.33
2022-12-22T12:30:36.031Z,702.08
2022-12-22T12:40:01.063Z,589.58
2022-12-22T12:50:01.009Z,491.67
2022-12-22T13:00:00.975Z,761.25
2022-12-22T13:10:01.019Z,223.33
2022-12-22T13:20:01.323Z,230.00
2022-12-22T13:30:00.989Z,176.67
2022-12-22T13:40:00.165Z,225.00
2022-12-22T13:50:09.759Z,276.67
2022-12-22T14:00:01.080Z,243.33
2022-12-22T14:10:01.073Z,91.67
2022-12-22T14:20:01.088Z,93.33
2022-12-22T14:30:01.027Z,50.00
2022-12-22T14:40:01.341Z,46.67
2022-12-22T14:50:01.032Z,21.67
2022-12-22T15:00:00.956Z,10.00
2022-12-22T15:10:14.936Z,10.30
2022-12-22T15:20:01.123Z,3.17
2022-12-22T15:30:00.992Z,0.91
2022-12-22T15:40:01.024Z,0.11
2022-12-22T15:50:01.036Z,0.00
2022-12-22T16:10:01.223Z,0.00
2022-12-22T16:30:01.580Z,0.00
2022-12-22T16:40:01.386Z,0.11
2022-12-22T16:50:02.618Z,0.00
2022-12-22T17:00:01.088Z,0.00
2022-12-22T17:10:01.271Z,0.00
2022-12-22T17:20:01.410Z,0.00
2022-12-22T17:30:01.236Z,0.00
2022-12-22T17:40:01.404Z,0.00
2022-12-22T17:50:01.307Z,0.00
2022-12-22T18:00:01.134Z,1.25
2022-12-22T18:10:01.087Z,1.13
2022-12-22T18:20:01.112Z,0.00
2022-12-22T18:30:01.691Z,0.00
2022-12-22T18:40:01.771Z,0.00
2022-12-22T18:50:01.088Z,0.00
2022-12-22T19:10:01.178Z,0.00
2022-12-22T19:20:01.028Z,0.00
2022-12-22T19:30:04.270Z,0.00
2022-12-22T19:40:01.348Z,0.00
2022-12-22T19:50:00.145Z,0.00
2022-12-22T20:00:01.481Z,0.00
2022-12-22T20:10:01.031Z,0.00
2022-12-22T20:20:00.975Z,0.00
2022-12-22T20:30:01.449Z,0.00
2022-12-22T20:40:01.314Z,0.00
2022-12-22T20:50:01.276Z,0.00
2022-12-22T21:00:03.152Z,0.00
2022-12-22T21:10:01.243Z,0.00
2022-12-22T21:20:01.283Z,0.00
2022-12-22T21:30:01.021Z,0.00
2022-12-22T21:50:01.877Z,0.00
2022-12-22T22:00:01.240Z,0.00
2022-12-22T22:10:00.203Z,0.00
2022-12-22T22:20:01.240Z,0.00
2022-12-22T22:30:01.624Z,0.00
2022-12-22T22:40:02.157Z,0.00
2022-12-22T22:50:02.800Z,0.00
2022-12-22T23:00:01.644Z,0.00
2022-12-22T23:10:03.533Z,0.00
2022-12-22T23:20:01.946Z,0.00
2022-12-22T23:30:01.287Z,0.00
2022-12-22T23:40:17.541Z,0.00
2022-12-22T23:50:01.007Z,0.00
